sensor_id;sensor_type;location;lat;lon;timestamp;temperature;humidity
44843;DHT22;31884;52.538;13.820;2023-12-28T00:01:47;4.20;99.90
44843;DHT22;31884;52.538;13.820;2023-12-28T00:04:12;4.20;99.90
44843;DHT22;31884;52.538;13.820;2023-12-28T00:06:38;4.30;99.90
44843;DHT22;31884;52.538;13.820;2023-12-28T00:09:03;4.30;99.90
44843;DHT22;31884;52.538;13.820;2023-12-28T00:11:29;4.30;99.90
44843;DHT22;31884;52.538;13.820;2023-12-28T00:13:54;4.40;99.90
44843;DHT22;31884;52.538;13.820;2023-12-28T00:16:20;4.40;99.90
44843;DHT22;31884;52.538;13.820;2023-12-28T00:18:45;4.40;99.90
44843;DHT22;31884;52.538;13.820;2023-12-28T00:21:11;4.40;99.90
44843;DHT22;31884;52.538;13.820;2023-12-28T00:23:36;4.40;99.90
44843;DHT22;31884;52.538;13.820;2023-12-28T00:26:02;4.50;99.90
44843;DHT22;31884;52.538;13.820;2023-12-28T00:28:28;4.50;99.90
44843;DHT22;31884;52.538;13.820;2023-12-28T00:30:53;4.60;99.90
44843;DHT22;31884;52.538;13.820;2023-12-28T00:33:19;4.60;99.90
44843;DHT22;31884;52.538;13.820;2023-12-28T00:35:44;4.60;99.90
44843;DHT22;31884;52.538;13.820;2023-12-28T00:38:10;4.60;99.90
44843;DHT22;31884;52.538;13.820;2023-12-28T00:40:35;4.70;99.90
44843;DHT22;31884;52.538;13.820;2023-12-28T00:43:01;4.70;99.90
44843;DHT22;31884;52.538;13.820;2023-12-28T00:45:26;4.70;99.90
44843;DHT22;31884;52.538;13.820;2023-12-28T00:47:51;4.70;99.90
44843;DHT22;31884;52.538;13.820;2023-12-28T00:50:17;4.70;99.90
44843;DHT22;31884;52.538;13.820;2023-12-28T00:52:43;4.70;99.90
44843;DHT22;31884;52.538;13.820;2023-12-28T00:55:08;4.70;99.90
44843;DHT22;31884;52.538;13.820;2023-12-28T00:57:34;4.70;99.90
44843;DHT22;31884;52.538;13.820;2023-12-28T01:00:00;4.80;99.90
44843;DHT22;31884;52.538;13.820;2023-12-28T01:02:26;4.70;99.90
44843;DHT22;31884;52.538;13.820;2023-12-28T01:04:51;4.70;99.90
44843;DHT22;31884;52.538;13.820;2023-12-28T01:07:17;4.70;99.90
44843;DHT22;31884;52.538;13.820;2023-12-28T01:09:42;4.60;99.90
44843;DHT22;31884;52.538;13.820;2023-12-28T01:12:08;4.60;99.90
44843;DHT22;31884;52.538;13.820;2023-12-28T01:14:34;4.60;99.90
44843;DHT22;31884;52.538;13.820;2023-12-28T01:16:59;4.50;99.90
44843;DHT22;31884;52.538;13.820;2023-12-28T01:19:25;4.50;99.90
44843;DHT22;31884;52.538;13.820;2023-12-28T01:21:50;4.50;99.90
44843;DHT22;31884;52.538;13.820;2023-12-28T01:24:16;4.50;99.90
44843;DHT22;31884;52.538;13.820;2023-12-28T01:26:41;4.50;99.90
44843;DHT22;31884;52.538;13.820;2023-12-28T01:29:07;4.50;99.90
44843;DHT22;31884;52.538;13.820;2023-12-28T01:31:32;4.50;99.90
44843;DHT22;31884;52.538;13.820;2023-12-28T01:33:58;4.40;99.90
44843;DHT22;31884;52.538;13.820;2023-12-28T01:36:23;4.40;99.90
44843;DHT22;31884;52.538;13.820;2023-12-28T01:38:49;4.40;99.90
44843;DHT22;31884;52.538;13.820;2023-12-28T01:41:14;4.30;99.90
44843;DHT22;31884;52.538;13.820;2023-12-28T01:43:41;4.30;99.90
44843;DHT22;31884;52.538;13.820;2023-12-28T01:46:10;4.30;99.90
44843;DHT22;31884;52.538;13.820;2023-12-28T01:48:38;4.20;99.90
44843;DHT22;31884;52.538;13.820;2023-12-28T01:51:03;4.10;99.90
44843;DHT22;31884;52.538;13.820;2023-12-28T01:53:29;4.10;99.90
44843;DHT22;31884;52.538;13.820;2023-12-28T01:55:55;4.10;99.90
44843;DHT22;31884;52.538;13.820;2023-12-28T01:58:21;4.10;99.90
44843;DHT22;31884;52.538;13.820;2023-12-28T02:00:47;4.10;99.90
44843;DHT22;31884;52.538;13.820;2023-12-28T02:03:13;4.10;99.90
44843;DHT22;31884;52.538;13.820;2023-12-28T02:05:38;4.10;99.90
44843;DHT22;31884;52.538;13.820;2023-12-28T02:08:05;4.20;99.90
44843;DHT22;31884;52.538;13.820;2023-12-28T02:10:30;4.10;99.90
44843;DHT22;31884;52.538;13.820;2023-12-28T02:12:56;4.20;99.90
44843;DHT22;31884;52.538;13.820;2023-12-28T02:15:22;4.20;99.90
44843;DHT22;31884;52.538;13.820;2023-12-28T02:17:58;4.20;99.90
44843;DHT22;31884;52.538;13.820;2023-12-28T02:20:25;4.20;99.90
44843;DHT22;31884;52.538;13.820;2023-12-28T02:22:52;4.20;99.90
44843;DHT22;31884;52.538;13.820;2023-12-28T02:25:18;4.20;99.90
44843;DHT22;31884;52.538;13.820;2023-12-28T02:27:45;4.20;99.90
44843;DHT22;31884;52.538;13.820;2023-12-28T02:30:21;4.20;99.90
44843;DHT22;31884;52.538;13.820;2023-12-28T02:35:55;4.20;99.90
44843;DHT22;31884;52.538;13.820;2023-12-28T02:38:18;4.20;99.90
44843;DHT22;31884;52.538;13.820;2023-12-28T02:40:44;4.30;99.90
44843;DHT22;31884;52.538;13.820;2023-12-28T02:43:11;4.30;99.90
44843;DHT22;31884;52.538;13.820;2023-12-28T02:45:38;4.30;99.90
44843;DHT22;31884;52.538;13.820;2023-12-28T02:48:04;4.30;99.90
44843;DHT22;31884;52.538;13.820;2023-12-28T02:50:30;4.30;99.90
44843;DHT22;31884;52.538;13.820;2023-12-28T02:52:57;4.30;99.90
44843;DHT22;31884;52.538;13.820;2023-12-28T02:55:23;4.30;99.90
44843;DHT22;31884;52.538;13.820;2023-12-28T02:57:50;4.40;99.90
44843;DHT22;31884;52.538;13.820;2023-12-28T03:00:16;4.50;99.90
44843;DHT22;31884;52.538;13.820;2023-12-28T03:02:42;4.60;99.90
44843;DHT22;31884;52.538;13.820;2023-12-28T03:05:08;4.70;99.90
44843;DHT22;31884;52.538;13.820;2023-12-28T03:07:34;4.80;99.90
44843;DHT22;31884;52.538;13.820;2023-12-28T03:09:59;4.90;99.90
44843;DHT22;31884;52.538;13.820;2023-12-28T03:12:25;5.00;99.90
44843;DHT22;31884;52.538;13.820;2023-12-28T03:14:51;5.10;99.90
44843;DHT22;31884;52.538;13.820;2023-12-28T03:17:16;5.20;99.90
44843;DHT22;31884;52.538;13.820;2023-12-28T03:19:42;5.20;99.90
44843;DHT22;31884;52.538;13.820;2023-12-28T03:22:07;5.30;99.90
44843;DHT22;31884;52.538;13.820;2023-12-28T03:24:33;5.40;99.90
44843;DHT22;31884;52.538;13.820;2023-12-28T03:26:58;5.50;99.90
44843;DHT22;31884;52.538;13.820;2023-12-28T03:29:24;5.50;99.90
44843;DHT22;31884;52.538;13.820;2023-12-28T03:31:50;5.60;99.90
44843;DHT22;31884;52.538;13.820;2023-12-28T03:34:16;5.70;99.90
44843;DHT22;31884;52.538;13.820;2023-12-28T03:36:41;5.70;99.90
44843;DHT22;31884;52.538;13.820;2023-12-28T03:39:08;5.80;99.90
44843;DHT22;31884;52.538;13.820;2023-12-28T03:41:33;5.80;99.90
44843;DHT22;31884;52.538;13.820;2023-12-28T03:43:59;5.90;99.90
44843;DHT22;31884;52.538;13.820;2023-12-28T03:46:24;6.00;99.90
44843;DHT22;31884;52.538;13.820;2023-12-28T03:48:50;6.00;99.90
44843;DHT22;31884;52.538;13.820;2023-12-28T03:51:16;6.10;99.90
44843;DHT22;31884;52.538;13.820;2023-12-28T03:53:42;6.20;99.90
44843;DHT22;31884;52.538;13.820;2023-12-28T03:56:08;6.30;99.90
44843;DHT22;31884;52.538;13.820;2023-12-28T03:58:33;6.30;99.90
44843;DHT22;31884;52.538;13.820;2023-12-28T04:00:59;6.40;99.90
44843;DHT22;31884;52.538;13.820;2023-12-28T04:03:24;6.50;99.90
44843;DHT22;31884;52.538;13.820;2023-12-28T04:05:50;6.50;99.90
44843;DHT22;31884;52.538;13.820;2023-12-28T04:08:16;6.60;99.90
44843;DHT22;31884;52.538;13.820;2023-12-28T04:10:42;6.60;99.90
44843;DHT22;31884;52.538;13.820;2023-12-28T04:13:08;6.70;99.90
44843;DHT22;31884;52.538;13.820;2023-12-28T04:15:33;6.70;99.90
44843;DHT22;31884;52.538;13.820;2023-12-28T04:17:59;6.70;99.90
44843;DHT22;31884;52.538;13.820;2023-12-28T04:20:24;6.70;99.90
44843;DHT22;31884;52.538;13.820;2023-12-28T04:22:50;6.70;99.90
44843;DHT22;31884;52.538;13.820;2023-12-28T04:25:15;6.70;99.90
44843;DHT22;31884;52.538;13.820;2023-12-28T04:27:44;6.70;99.90
44843;DHT22;31884;52.538;13.820;2023-12-28T04:30:12;6.70;99.90
44843;DHT22;31884;52.538;13.820;2023-12-28T04:32:38;6.70;99.90
44843;DHT22;31884;52.538;13.820;2023-12-28T04:35:03;6.70;99.90
44843;DHT22;31884;52.538;13.820;2023-12-28T04:37:29;6.80;99.90
44843;DHT22;31884;52.538;13.820;2023-12-28T04:39:56;6.80;99.90
44843;DHT22;31884;52.538;13.820;2023-12-28T04:42:22;6.80;99.90
44843;DHT22;31884;52.538;13.820;2023-12-28T04:44:47;6.80;99.90
44843;DHT22;31884;52.538;13.820;2023-12-28T04:47:13;6.90;99.90
44843;DHT22;31884;52.538;13.820;2023-12-28T04:49:39;6.90;99.90
44843;DHT22;31884;52.538;13.820;2023-12-28T04:52:04;6.90;99.90
44843;DHT22;31884;52.538;13.820;2023-12-28T04:54:30;6.90;99.90
44843;DHT22;31884;52.538;13.820;2023-12-28T04:56:55;7.00;99.90
44843;DHT22;31884;52.538;13.820;2023-12-28T04:59:21;7.00;99.90
44843;DHT22;31884;52.538;13.820;2023-12-28T05:01:46;7.00;99.90
44843;DHT22;31884;52.538;13.820;2023-12-28T05:04:12;7.00;99.90
44843;DHT22;31884;52.538;13.820;2023-12-28T05:06:37;7.00;99.90
44843;DHT22;31884;52.538;13.820;2023-12-28T05:09:03;7.10;99.90
44843;DHT22;31884;52.538;13.820;2023-12-28T05:11:29;7.10;99.90
44843;DHT22;31884;52.538;13.820;2023-12-28T05:13:55;7.10;99.90
44843;DHT22;31884;52.538;13.820;2023-12-28T05:16:21;7.10;99.90
44843;DHT22;31884;52.538;13.820;2023-12-28T05:18:47;7.10;99.90
44843;DHT22;31884;52.538;13.820;2023-12-28T05:21:13;7.10;99.90
44843;DHT22;31884;52.538;13.820;2023-12-28T05:23:39;7.10;99.50
44843;DHT22;31884;52.538;13.820;2023-12-28T05:26:05;7.20;99.90
44843;DHT22;31884;52.538;13.820;2023-12-28T05:28:31;7.20;99.90
44843;DHT22;31884;52.538;13.820;2023-12-28T05:30:57;7.10;99.90
44843;DHT22;31884;52.538;13.820;2023-12-28T05:33:24;7.20;99.80
44843;DHT22;31884;52.538;13.820;2023-12-28T05:35:50;7.20;99.80
44843;DHT22;31884;52.538;13.820;2023-12-28T05:38:15;7.20;98.80
44843;DHT22;31884;52.538;13.820;2023-12-28T05:40:41;7.20;99.20
44843;DHT22;31884;52.538;13.820;2023-12-28T05:43:06;7.20;98.60
44843;DHT22;31884;52.538;13.820;2023-12-28T05:45:32;7.20;98.70
44843;DHT22;31884;52.538;13.820;2023-12-28T05:47:57;7.10;98.90
44843;DHT22;31884;52.538;13.820;2023-12-28T05:50:23;7.10;99.30
44843;DHT22;31884;52.538;13.820;2023-12-28T05:52:48;7.10;98.50
44843;DHT22;31884;52.538;13.820;2023-12-28T05:55:14;7.10;98.90
44843;DHT22;31884;52.538;13.820;2023-12-28T05:57:39;7.10;98.30
44843;DHT22;31884;52.538;13.820;2023-12-28T06:00:05;7.00;98.60
44843;DHT22;31884;52.538;13.820;2023-12-28T06:02:32;7.00;98.80
44843;DHT22;31884;52.538;13.820;2023-12-28T06:04:57;7.00;98.90
44843;DHT22;31884;52.538;13.820;2023-12-28T06:07:23;6.90;98.60
44843;DHT22;31884;52.538;13.820;2023-12-28T06:09:48;6.90;98.30
44843;DHT22;31884;52.538;13.820;2023-12-28T06:12:14;6.80;98.60
44843;DHT22;31884;52.538;13.820;2023-12-28T06:14:40;6.80;98.40
44843;DHT22;31884;52.538;13.820;2023-12-28T06:17:05;6.80;98.10
44843;DHT22;31884;52.538;13.820;2023-12-28T06:19:31;6.80;97.90
44843;DHT22;31884;52.538;13.820;2023-12-28T06:21:57;6.80;97.90
44843;DHT22;31884;52.538;13.820;2023-12-28T06:24:23;6.80;97.80
44843;DHT22;31884;52.538;13.820;2023-12-28T06:26:49;6.70;98.30
44843;DHT22;31884;52.538;13.820;2023-12-28T06:29:14;6.70;98.10
44843;DHT22;31884;52.538;13.820;2023-12-28T06:31:40;6.70;98.00
44843;DHT22;31884;52.538;13.820;2023-12-28T06:34:06;6.60;98.10
44843;DHT22;31884;52.538;13.820;2023-12-28T06:36:32;6.60;98.50
44843;DHT22;31884;52.538;13.820;2023-12-28T06:38:58;6.60;98.70
44843;DHT22;31884;52.538;13.820;2023-12-28T06:41:25;6.60;98.70
44843;DHT22;31884;52.538;13.820;2023-12-28T06:43:51;6.50;98.70
44843;DHT22;31884;52.538;13.820;2023-12-28T06:46:17;6.50;98.80
44843;DHT22;31884;52.538;13.820;2023-12-28T06:48:43;6.50;99.00
44843;DHT22;31884;52.538;13.820;2023-12-28T06:51:09;6.50;98.50
44843;DHT22;31884;52.538;13.820;2023-12-28T06:53:35;6.40;98.70
44843;DHT22;31884;52.538;13.820;2023-12-28T06:56:00;6.50;98.90
44843;DHT22;31884;52.538;13.820;2023-12-28T06:58:26;6.40;99.10
44843;DHT22;31884;52.538;13.820;2023-12-28T07:00:51;6.40;99.20
44843;DHT22;31884;52.538;13.820;2023-12-28T07:03:17;6.40;99.30
44843;DHT22;31884;52.538;13.820;2023-12-28T07:05:42;6.40;99.60
44843;DHT22;31884;52.538;13.820;2023-12-28T07:08:08;6.30;99.60
44843;DHT22;31884;52.538;13.820;2023-12-28T07:10:34;6.40;99.70
44843;DHT22;31884;52.538;13.820;2023-12-28T07:12:59;6.40;99.60
44843;DHT22;31884;52.538;13.820;2023-12-28T07:15:25;6.30;99.90
44843;DHT22;31884;52.538;13.820;2023-12-28T07:17:50;6.30;99.90
44843;DHT22;31884;52.538;13.820;2023-12-28T07:20:16;6.30;99.90
44843;DHT22;31884;52.538;13.820;2023-12-28T07:22:41;6.30;99.90
44843;DHT22;31884;52.538;13.820;2023-12-28T07:25:07;6.30;99.90
44843;DHT22;31884;52.538;13.820;2023-12-28T07:27:34;6.30;99.90
44843;DHT22;31884;52.538;13.820;2023-12-28T07:30:00;6.30;99.90
44843;DHT22;31884;52.538;13.820;2023-12-28T07:32:26;6.30;99.90
44843;DHT22;31884;52.538;13.820;2023-12-28T07:34:55;6.30;99.90
44843;DHT22;31884;52.538;13.820;2023-12-28T07:37:20;6.20;99.90
44843;DHT22;31884;52.538;13.820;2023-12-28T07:39:49;6.30;99.90
44843;DHT22;31884;52.538;13.820;2023-12-28T07:42:14;6.20;99.90
44843;DHT22;31884;52.538;13.820;2023-12-28T07:44:40;6.30;99.90
44843;DHT22;31884;52.538;13.820;2023-12-28T07:47:06;6.30;99.90
44843;DHT22;31884;52.538;13.820;2023-12-28T07:49:32;6.30;99.90
44843;DHT22;31884;52.538;13.820;2023-12-28T07:51:57;6.20;99.90
44843;DHT22;31884;52.538;13.820;2023-12-28T07:54:23;6.30;99.90
44843;DHT22;31884;52.538;13.820;2023-12-28T07:56:49;6.30;99.90
44843;DHT22;31884;52.538;13.820;2023-12-28T07:59:14;6.30;99.90
44843;DHT22;31884;52.538;13.820;2023-12-28T08:01:40;6.30;99.90
44843;DHT22;31884;52.538;13.820;2023-12-28T08:04:05;6.30;99.90
44843;DHT22;31884;52.538;13.820;2023-12-28T08:06:31;6.30;99.90
44843;DHT22;31884;52.538;13.820;2023-12-28T08:09:00;6.30;99.90
44843;DHT22;31884;52.538;13.820;2023-12-28T08:11:28;6.30;99.90
44843;DHT22;31884;52.538;13.820;2023-12-28T08:13:54;6.30;99.90
44843;DHT22;31884;52.538;13.820;2023-12-28T08:16:20;6.30;99.90
44843;DHT22;31884;52.538;13.820;2023-12-28T08:18:46;6.30;99.90
44843;DHT22;31884;52.538;13.820;2023-12-28T08:21:11;6.30;99.90
44843;DHT22;31884;52.538;13.820;2023-12-28T08:23:37;6.40;99.90
44843;DHT22;31884;52.538;13.820;2023-12-28T08:26:02;6.40;99.90
44843;DHT22;31884;52.538;13.820;2023-12-28T08:28:28;6.40;99.90
44843;DHT22;31884;52.538;13.820;2023-12-28T08:30:55;6.40;99.90
44843;DHT22;31884;52.538;13.820;2023-12-28T08:33:21;6.40;99.90
44843;DHT22;31884;52.538;13.820;2023-12-28T08:35:46;6.50;99.90
44843;DHT22;31884;52.538;13.820;2023-12-28T08:38:12;6.50;99.90
44843;DHT22;31884;52.538;13.820;2023-12-28T08:40:37;6.50;99.90
44843;DHT22;31884;52.538;13.820;2023-12-28T08:43:03;6.60;99.90
44843;DHT22;31884;52.538;13.820;2023-12-28T08:45:28;6.70;99.90
44843;DHT22;31884;52.538;13.820;2023-12-28T08:47:54;6.70;99.90
44843;DHT22;31884;52.538;13.820;2023-12-28T08:50:19;6.70;99.90
44843;DHT22;31884;52.538;13.820;2023-12-28T08:52:45;6.80;99.90
44843;DHT22;31884;52.538;13.820;2023-12-28T08:55:10;6.90;99.90
44843;DHT22;31884;52.538;13.820;2023-12-28T08:57:36;6.90;99.90
44843;DHT22;31884;52.538;13.820;2023-12-28T09:00:01;7.00;99.90
44843;DHT22;31884;52.538;13.820;2023-12-28T09:02:28;7.00;99.90
44843;DHT22;31884;52.538;13.820;2023-12-28T09:04:54;7.10;99.90
44843;DHT22;31884;52.538;13.820;2023-12-28T09:07:19;7.20;99.90
44843;DHT22;31884;52.538;13.820;2023-12-28T09:09:45;7.30;99.90
44843;DHT22;31884;52.538;13.820;2023-12-28T09:12:11;7.30;99.90
44843;DHT22;31884;52.538;13.820;2023-12-28T09:14:37;7.40;99.90
44843;DHT22;31884;52.538;13.820;2023-12-28T09:17:03;7.50;99.90
44843;DHT22;31884;52.538;13.820;2023-12-28T09:19:28;7.50;99.90
44843;DHT22;31884;52.538;13.820;2023-12-28T09:21:54;7.60;99.90
44843;DHT22;31884;52.538;13.820;2023-12-28T09:24:19;7.60;99.90
44843;DHT22;31884;52.538;13.820;2023-12-28T09:26:45;7.70;99.90
44843;DHT22;31884;52.538;13.820;2023-12-28T09:29:11;7.70;99.90
44843;DHT22;31884;52.538;13.820;2023-12-28T09:31:37;7.70;99.90
44843;DHT22;31884;52.538;13.820;2023-12-28T09:34:03;7.70;99.90
44843;DHT22;31884;52.538;13.820;2023-12-28T09:36:30;7.80;99.90
44843;DHT22;31884;52.538;13.820;2023-12-28T09:38:57;7.80;99.90
44843;DHT22;31884;52.538;13.820;2023-12-28T09:41:25;7.80;99.90
44843;DHT22;31884;52.538;13.820;2023-12-28T09:43:57;7.80;99.90
44843;DHT22;31884;52.538;13.820;2023-12-28T09:46:23;7.80;99.90
44843;DHT22;31884;52.538;13.820;2023-12-28T09:48:52;7.90;99.90
44843;DHT22;31884;52.538;13.820;2023-12-28T09:51:19;7.90;99.90
44843;DHT22;31884;52.538;13.820;2023-12-28T09:53:45;7.90;99.90
44843;DHT22;31884;52.538;13.820;2023-12-28T09:56:12;7.90;99.90
44843;DHT22;31884;52.538;13.820;2023-12-28T09:58:39;7.80;99.90
44843;DHT22;31884;52.538;13.820;2023-12-28T10:01:05;7.80;99.90
44843;DHT22;31884;52.538;13.820;2023-12-28T10:03:31;7.80;99.90
44843;DHT22;31884;52.538;13.820;2023-12-28T10:05:57;7.80;99.90
44843;DHT22;31884;52.538;13.820;2023-12-28T10:08:23;7.80;99.90
44843;DHT22;31884;52.538;13.820;2023-12-28T10:10:50;7.70;99.90
44843;DHT22;31884;52.538;13.820;2023-12-28T10:13:20;7.70;99.90
44843;DHT22;31884;52.538;13.820;2023-12-28T10:15:46;7.70;99.90
44843;DHT22;31884;52.538;13.820;2023-12-28T10:18:11;7.70;99.90
44843;DHT22;31884;52.538;13.820;2023-12-28T10:20:38;7.70;99.90
44843;DHT22;31884;52.538;13.820;2023-12-28T10:23:03;7.70;99.90
44843;DHT22;31884;52.538;13.820;2023-12-28T10:25:31;7.70;99.90
44843;DHT22;31884;52.538;13.820;2023-12-28T10:27:57;7.70;99.90
44843;DHT22;31884;52.538;13.820;2023-12-28T10:30:22;7.70;99.90
44843;DHT22;31884;52.538;13.820;2023-12-28T10:32:48;7.80;99.90
44843;DHT22;31884;52.538;13.820;2023-12-28T10:35:14;7.80;99.90
44843;DHT22;31884;52.538;13.820;2023-12-28T10:37:40;7.80;99.90
44843;DHT22;31884;52.538;13.820;2023-12-28T10:40:09;7.80;99.90
44843;DHT22;31884;52.538;13.820;2023-12-28T10:43:00;7.90;99.90
44843;DHT22;31884;52.538;13.820;2023-12-28T10:45:29;8.00;99.90
44843;DHT22;31884;52.538;13.820;2023-12-28T10:48:00;8.00;99.90
44843;DHT22;31884;52.538;13.820;2023-12-28T10:50:30;8.10;99.90
44843;DHT22;31884;52.538;13.820;2023-12-28T10:53:07;8.20;99.90
44843;DHT22;31884;52.538;13.820;2023-12-28T10:55:59;8.30;99.90
44843;DHT22;31884;52.538;13.820;2023-12-28T11:01:22;8.50;99.90
44843;DHT22;31884;52.538;13.820;2023-12-28T11:03:57;8.50;99.90
44843;DHT22;31884;52.538;13.820;2023-12-28T11:06:26;8.50;99.90
44843;DHT22;31884;52.538;13.820;2023-12-28T11:08:54;8.50;99.90
44843;DHT22;31884;52.538;13.820;2023-12-28T11:11:23;8.60;99.90
44843;DHT22;31884;52.538;13.820;2023-12-28T11:13:49;8.70;99.80
44843;DHT22;31884;52.538;13.820;2023-12-28T11:16:18;8.70;99.80
44843;DHT22;31884;52.538;13.820;2023-12-28T11:18:45;8.70;99.90
44843;DHT22;31884;52.538;13.820;2023-12-28T11:21:11;8.70;99.50
44843;DHT22;31884;52.538;13.820;2023-12-28T11:23:37;8.90;99.20
44843;DHT22;31884;52.538;13.820;2023-12-28T11:26:03;8.90;99.10
44843;DHT22;31884;52.538;13.820;2023-12-28T11:28:29;8.90;99.00
44843;DHT22;31884;52.538;13.820;2023-12-28T11:30:57;8.90;99.00
44843;DHT22;31884;52.538;13.820;2023-12-28T11:33:22;8.80;99.20
44843;DHT22;31884;52.538;13.820;2023-12-28T11:35:48;8.90;99.10
44843;DHT22;31884;52.538;13.820;2023-12-28T11:38:16;8.90;99.10
44843;DHT22;31884;52.538;13.820;2023-12-28T11:40:44;9.00;99.00
44843;DHT22;31884;52.538;13.820;2023-12-28T11:43:20;9.20;98.70
44843;DHT22;31884;52.538;13.820;2023-12-28T11:45:55;9.30;98.50
44843;DHT22;31884;52.538;13.820;2023-12-28T11:48:25;9.40;98.50
44843;DHT22;31884;52.538;13.820;2023-12-28T11:50:55;9.50;98.20
44843;DHT22;31884;52.538;13.820;2023-12-28T11:53:22;9.50;98.00
44843;DHT22;31884;52.538;13.820;2023-12-28T11:55:47;9.60;97.60
44843;DHT22;31884;52.538;13.820;2023-12-28T11:58:13;9.70;97.50
44843;DHT22;31884;52.538;13.820;2023-12-28T12:00:39;9.70;97.20
44843;DHT22;31884;52.538;13.820;2023-12-28T12:03:10;9.80;96.80
44843;DHT22;31884;52.538;13.820;2023-12-28T12:05:36;9.80;96.40
44843;DHT22;31884;52.538;13.820;2023-12-28T12:08:02;9.80;96.30
44843;DHT22;31884;52.538;13.820;2023-12-28T12:10:28;9.70;96.20
44843;DHT22;31884;52.538;13.820;2023-12-28T12:12:54;9.60;95.90
44843;DHT22;31884;52.538;13.820;2023-12-28T12:15:19;9.60;95.60
44843;DHT22;31884;52.538;13.820;2023-12-28T12:17:45;9.50;95.70
44843;DHT22;31884;52.538;13.820;2023-12-28T12:20:10;9.50;95.40
44843;DHT22;31884;52.538;13.820;2023-12-28T12:22:36;9.50;95.20
44843;DHT22;31884;52.538;13.820;2023-12-28T12:25:03;9.50;95.20
44843;DHT22;31884;52.538;13.820;2023-12-28T12:27:31;9.50;95.40
44843;DHT22;31884;52.538;13.820;2023-12-28T12:29:56;9.40;95.30
44843;DHT22;31884;52.538;13.820;2023-12-28T12:32:22;9.40;95.20
44843;DHT22;31884;52.538;13.820;2023-12-28T12:34:49;9.40;95.20
44843;DHT22;31884;52.538;13.820;2023-12-28T12:37:15;9.40;95.10
44843;DHT22;31884;52.538;13.820;2023-12-28T12:39:40;9.50;95.00
44843;DHT22;31884;52.538;13.820;2023-12-28T12:42:06;9.50;95.30
44843;DHT22;31884;52.538;13.820;2023-12-28T12:44:32;9.40;95.00
44843;DHT22;31884;52.538;13.820;2023-12-28T12:46:59;9.40;95.30
44843;DHT22;31884;52.538;13.820;2023-12-28T12:49:25;9.40;94.90
44843;DHT22;31884;52.538;13.820;2023-12-28T12:51:51;9.50;94.80
44843;DHT22;31884;52.538;13.820;2023-12-28T12:54:17;9.50;94.80
44843;DHT22;31884;52.538;13.820;2023-12-28T12:56:47;9.50;94.70
44843;DHT22;31884;52.538;13.820;2023-12-28T12:59:12;9.60;94.60
44843;DHT22;31884;52.538;13.820;2023-12-28T13:01:46;9.60;94.60
44843;DHT22;31884;52.538;13.820;2023-12-28T13:04:16;9.60;94.70
44843;DHT22;31884;52.538;13.820;2023-12-28T13:06:42;9.70;94.50
44843;DHT22;31884;52.538;13.820;2023-12-28T13:09:08;9.70;94.30
44843;DHT22;31884;52.538;13.820;2023-12-28T13:11:37;9.60;94.40
44843;DHT22;31884;52.538;13.820;2023-12-28T13:14:03;9.60;94.00
44843;DHT22;31884;52.538;13.820;2023-12-28T13:16:29;9.50;94.30
44843;DHT22;31884;52.538;13.820;2023-12-28T13:18:55;9.50;94.30
44843;DHT22;31884;52.538;13.820;2023-12-28T13:21:21;9.40;94.60
44843;DHT22;31884;52.538;13.820;2023-12-28T13:23:46;9.40;94.50
44843;DHT22;31884;52.538;13.820;2023-12-28T13:26:12;9.40;94.50
44843;DHT22;31884;52.538;13.820;2023-12-28T13:28:38;9.40;94.40
44843;DHT22;31884;52.538;13.820;2023-12-28T13:31:03;9.40;94.40
44843;DHT22;31884;52.538;13.820;2023-12-28T13:33:29;9.40;94.40
44843;DHT22;31884;52.538;13.820;2023-12-28T13:35:57;9.40;94.50
44843;DHT22;31884;52.538;13.820;2023-12-28T13:38:23;9.30;94.60
44843;DHT22;31884;52.538;13.820;2023-12-28T13:40:48;9.40;94.70
44843;DHT22;31884;52.538;13.820;2023-12-28T13:43:14;9.40;94.50
44843;DHT22;31884;52.538;13.820;2023-12-28T13:45:39;9.40;94.40
44843;DHT22;31884;52.538;13.820;2023-12-28T13:48:05;9.40;94.40
44843;DHT22;31884;52.538;13.820;2023-12-28T13:50:31;9.40;94.50
44843;DHT22;31884;52.538;13.820;2023-12-28T13:52:57;9.40;94.60
44843;DHT22;31884;52.538;13.820;2023-12-28T13:55:22;9.30;94.40
44843;DHT22;31884;52.538;13.820;2023-12-28T13:57:48;9.40;94.30
44843;DHT22;31884;52.538;13.820;2023-12-28T14:00:14;9.30;94.30
44843;DHT22;31884;52.538;13.820;2023-12-28T14:02:40;9.30;94.40
44843;DHT22;31884;52.538;13.820;2023-12-28T14:05:06;9.40;94.40
44843;DHT22;31884;52.538;13.820;2023-12-28T14:07:32;9.50;94.50
44843;DHT22;31884;52.538;13.820;2023-12-28T14:09:58;9.50;94.60
44843;DHT22;31884;52.538;13.820;2023-12-28T14:12:23;9.60;94.30
44843;DHT22;31884;52.538;13.820;2023-12-28T14:14:49;9.60;94.20
44843;DHT22;31884;52.538;13.820;2023-12-28T14:17:15;9.70;94.00
44843;DHT22;31884;52.538;13.820;2023-12-28T14:19:45;9.70;94.00
44843;DHT22;31884;52.538;13.820;2023-12-28T14:22:11;9.70;94.30
44843;DHT22;31884;52.538;13.820;2023-12-28T14:24:37;9.70;93.80
44843;DHT22;31884;52.538;13.820;2023-12-28T14:27:03;9.80;93.80
44843;DHT22;31884;52.538;13.820;2023-12-28T14:29:29;9.80;93.70
44843;DHT22;31884;52.538;13.820;2023-12-28T14:31:55;9.80;93.50
44843;DHT22;31884;52.538;13.820;2023-12-28T14:34:21;9.80;93.30
44843;DHT22;31884;52.538;13.820;2023-12-28T14:36:47;9.80;93.60
44843;DHT22;31884;52.538;13.820;2023-12-28T14:39:15;9.80;93.50
44843;DHT22;31884;52.538;13.820;2023-12-28T14:41:43;9.80;93.40
44843;DHT22;31884;52.538;13.820;2023-12-28T14:44:09;9.70;93.30
44843;DHT22;31884;52.538;13.820;2023-12-28T14:46:35;9.70;93.40
44843;DHT22;31884;52.538;13.820;2023-12-28T14:49:00;9.60;93.10
44843;DHT22;31884;52.538;13.820;2023-12-28T14:51:28;9.50;93.00
44843;DHT22;31884;52.538;13.820;2023-12-28T14:53:54;9.40;93.00
44843;DHT22;31884;52.538;13.820;2023-12-28T14:56:20;9.30;93.20
44843;DHT22;31884;52.538;13.820;2023-12-28T14:58:46;9.30;93.50
44843;DHT22;31884;52.538;13.820;2023-12-28T15:01:17;9.20;93.50
44843;DHT22;31884;52.538;13.820;2023-12-28T15:03:45;9.20;93.60
44843;DHT22;31884;52.538;13.820;2023-12-28T15:06:11;9.20;93.60
44843;DHT22;31884;52.538;13.820;2023-12-28T15:08:36;9.20;93.80
44843;DHT22;31884;52.538;13.820;2023-12-28T15:11:03;9.10;93.80
44843;DHT22;31884;52.538;13.820;2023-12-28T15:13:29;9.10;94.00
44843;DHT22;31884;52.538;13.820;2023-12-28T15:15:54;9.10;94.00
44843;DHT22;31884;52.538;13.820;2023-12-28T15:18:20;9.10;94.10
44843;DHT22;31884;52.538;13.820;2023-12-28T15:20:47;9.10;94.20
44843;DHT22;31884;52.538;13.820;2023-12-28T15:23:13;9.10;94.30
44843;DHT22;31884;52.538;13.820;2023-12-28T15:25:39;9.00;94.20
44843;DHT22;31884;52.538;13.820;2023-12-28T15:28:06;9.00;94.30
44843;DHT22;31884;52.538;13.820;2023-12-28T15:30:31;8.90;94.40